Latest Coastal Weather Observations for Croker Island Airport

IDD60701

Issued at 6:25 pm CST Tuesday 29 July 2014 (issued every 10 minutes, with the page automatically refreshed every 10 minutes)

About coastal observations | Map of coastal stations | Coastal observations for NT | Marine services | Other Formats
Station Details ID: 014308 Name: CROKER ISLAND AIRPORT Lat: -11.16 Lon: 132.48 Height: 9.2 m
Data from the previous 72 hours. | See also: Recent months for locations in Northern Territory
Date/Time
CST
Temp

°C
Wind Pressure Rain
since 9am
mm
Weather Cloud Vis
km
Sea
Height
m
Swell
Dir
 
Speed
knots
Gust
knots
hPa Trend Height
m
Period
s
Dir
29/06:00pm 26.0 E 10 15 1013.5 - 0.0 - - - - - - -
29/05:30pm 26.6 E 12 19 1013.3 - 0.0 - - - - - - -
29/05:00pm 27.0 E 14 20 1013.3 - 0.0 - - - - - - -
29/04:30pm 27.3 E 14 21 1013.0 - 0.0 - - - - - - -
29/04:00pm 28.1 E 14 19 1013.1 - 0.0 - - - - - - -
29/03:30pm 28.8 E 13 22 1013.0 - 0.0 - - - - - - -
29/03:00pm 29.4 E 13 19 1013.1 - 0.0 - - - - - - -
29/02:30pm 28.9 E 13 20 1013.3 - 0.0 - - - - - - -
29/02:00pm 28.7 ESE 14 22 1013.9 - 0.0 - - - - - - -
29/01:30pm 28.9 E 14 22 1014.1 - 0.0 - - - - - - -
29/01:00pm 28.8 E 15 21 1014.5 - 0.0 - - - - - - -
29/12:30pm 28.9 E 13 19 1014.8 - 0.0 - - - - - - -
29/12:00pm 28.6 E 12 19 1015.4 - 0.0 - - - - - - -
29/11:30am 28.4 E 13 21 1015.8 - 0.0 - - - - - - -
29/11:00am 27.7 ESE 11 19 1016.1 - 0.0 - - - - - - -
29/10:30am 27.3 ESE 12 18 1016.2 - 0.0 - - - - - - -
29/10:00am 26.6 ESE 12 18 1016.3 - 0.0 - - - - - - -
29/09:30am 25.2 ESE 12 18 1016.3 - 0.0 - - - - - - -
29/09:00am 25.4 ESE 10 15 1016.2 - 0.0 - - - - - - -
29/08:30am 24.8 ESE 9 14 1016.0 - 0.0 - - - - - - -
29/08:00am 24.4 ESE 9 15 1015.9 - 0.0 - - - - - - -
29/07:30am 23.3 ESE 7 11 1015.5 - 0.0 - - - - - - -
29/07:00am 23.1 ESE 9 12 1015.5 - 0.0 - - - - - - -
29/06:30am 22.8 E 8 11 1015.4 - 0.0 - - - - - - -
29/06:00am 22.9 ESE 7 10 1015.0 - 0.0 - - - - - - -
29/05:30am 22.9 E 6 8 1014.9 - 0.0 - - - - - - -
29/05:00am 23.2 ESE 6 9 1014.7 - 0.0 - - - - - - -
29/04:30am 23.5 E 7 10 1014.4 - 0.0 - - - - - - -
29/04:00am 23.9 E 9 13 1014.3 - 0.0 - - - - - - -
29/03:30am 23.9 E 8 13 1014.2 - 0.0 - - - - - - -
29/03:00am 24.1 E 9 14 1014.1 - 0.0 - - - - - - -
29/02:30am 24.3 E 10 16 1014.3 - 0.0 - - - - - - -
29/02:00am 24.3 E 8 13 1014.6 - 0.0 - - - - - - -
29/01:30am 24.3 E 9 14 1014.7 - 0.0 - - - - - - -
29/01:00am 24.2 E 8 11 1014.7 - 0.0 - - - - - - -
29/12:30am 24.3 E 7 11 1014.6 - 0.0 - - - - - - -
29/12:00am 24.4 E 6 9 1014.7 - 0.0 - - - - - - -
 
Date/Time
CST
Temp

°C
Wind Pressure Rain
since 9am
mm
Weather Cloud Vis
km
Sea
Height
m
Swell
Dir
 
Speed
knots
Gust
knots
hPa Trend Height
m
Period
s
Dir
28/11:30pm 24.5 E 7 12 1014.7 - 0.0 - - - - - - -
28/11:00pm 24.7 E 8 12 1015.0 - 0.0 - - - - - - -
28/10:30pm 24.9 E 9 13 1014.8 - 0.0 - - - - - - -
28/10:00pm 24.9 E 9 12 1014.7 - 0.0 - - - - - - -
28/09:30pm 24.9 E 8 12 1014.5 - 0.0 - - - - - - -
28/09:00pm 25.0 E 8 11 1014.5 - 0.0 - - - - - - -
28/08:30pm 25.1 ENE 7 12 1014.4 - 0.0 - - - - - - -
28/08:00pm 25.2 ENE 8 13 1014.3 - 0.0 - - - - - - -
28/07:30pm 25.6 ENE 8 13 1014.0 - 0.0 - - - - - - -
28/07:00pm 25.7 ENE 8 12 1013.8 - 0.0 - - - - - - -
28/06:30pm 25.8 ENE 9 15 1013.2 - 0.0 - - - - - - -
28/06:00pm 26.1 ENE 11 16 1012.8 - 0.0 - - - - - - -
28/05:30pm 26.3 ENE 14 20 1012.7 - 0.0 - - - - - - -
28/05:00pm 26.7 E 14 20 1012.6 - 0.0 - - - - - - -
28/04:30pm 27.5 E 12 18 1012.4 - 0.0 - - - - - - -
28/04:00pm 28.2 E 14 21 1012.5 - 0.0 - - - - - - -
28/03:30pm 28.2 E 13 22 1012.6 - 0.0 - - - - - - -
28/03:00pm 28.8 E 14 21 1012.9 - 0.0 - - - - - - -
28/02:30pm 27.8 ESE 14 20 1013.2 - 0.0 - - - - - - -
28/02:00pm 28.2 E 14 19 1013.7 - 0.0 - - - - - - -
28/01:30pm 28.6 E 13 20 1014.0 - 0.0 - - - - - - -
28/01:00pm 28.5 ESE 12 20 1014.6 - 0.0 - - - - - - -
28/12:30pm 28.3 E 13 19 1015.0 - 0.0 - - - - - - -
28/12:00pm 28.2 E 11 17 1015.3 - 0.0 - - - - - - -
28/11:30am 27.5 E 13 17 1015.7 - 0.0 - - - - - - -
28/11:00am 27.1 E 12 17 1016.1 - 0.0 - - - - - - -
28/10:30am 26.9 E 12 17 1016.1 - 0.0 - - - - - - -
28/10:00am 26.9 ESE 11 15 1016.3 - 0.0 - - - - - - -
28/09:30am 26.1 ESE 11 16 1016.1 - 0.0 - - - - - - -
28/09:00am 25.8 ESE 11 16 1016.0 - 0.0 - - - - - - -
28/08:30am 24.9 E 12 17 1015.9 - 0.0 - - - - - - -
28/08:00am 23.5 E 6 9 1015.9 - 0.0 - - - - - - -
28/07:30am 22.7 E 5 7 1015.5 - 0.0 - - - - - - -
28/07:00am 22.3 ESE 5 9 1015.5 - 0.0 - - - - - - -
28/06:30am 22.4 E 6 9 1015.0 - 0.0 - - - - - - -
28/06:00am 22.6 E 6 9 1014.9 - 0.0 - - - - - - -
28/05:30am 22.9 ESE 7 9 1014.7 - 0.0 - - - - - - -
28/05:00am 23.1 ESE 7 11 1014.7 - 0.0 - - - - - - -
28/04:30am 23.3 ESE 7 10 1014.4 - 0.0 - - - - - - -
28/04:00am 23.5 E 8 12 1014.4 - 0.0 - - - - - - -
28/03:30am 23.5 E 5 6 1014.4 - 0.0 - - - - - - -
28/03:00am 23.4 E 4 6 1014.6 - 0.0 - - - - - - -
28/02:30am 23.5 E 4 6 1014.8 - 0.0 - - - - - - -
28/02:00am 23.3 E 5 7 1015.0 - 0.0 - - - - - - -
28/01:30am 23.3 E 4 5 1015.2 - 0.0 - - - - - - -
28/01:00am 23.1 E 4 5 1015.6 - 0.0 - - - - - - -
28/12:30am 23.1 E 3 4 1015.6 - 0.0 - - - - - - -
28/12:00am 23.1 E 3 4 1015.6 - 0.0 - - - - - - -
 
Date/Time
CST
Temp

°C
Wind Pressure Rain
since 9am
mm
Weather Cloud Vis
km
Sea
Height
m
Swell
Dir
 
Speed
knots
Gust
knots
hPa Trend Height
m
Period
s
Dir
27/11:30pm 23.0 E 3 4 1015.7 - 0.0 - - - - - - -
27/11:00pm 22.8 E 3 4 1015.7 - 0.0 - - - - - - -
27/10:30pm 22.5 E 2 3 1015.7 - 0.0 - - - - - - -
27/10:00pm 22.6 E 2 2 1015.7 - 0.0 - - - - - - -
27/09:30pm 23.3 E 3 4 1015.4 - 0.0 - - - - - - -
27/09:00pm 23.7 ENE 3 5 1015.1 - 0.0 - - - - - - -
27/08:30pm 23.8 ENE 4 5 1014.8 - 0.0 - - - - - - -
27/08:00pm 24.2 ENE 5 7 1014.6 - 0.0 - - - - - - -
27/07:30pm 24.2 ENE 4 5 1014.2 - 0.0 - - - - - - -
27/07:00pm 24.9 ENE 5 7 1013.8 - 0.0 - - - - - - -
27/06:30pm 25.6 ENE 5 8 1013.5 - 0.0 - - - - - - -
27/06:00pm 26.3 ENE 8 13 1013.3 - 0.0 - - - - - - -
27/05:30pm 27.8 E 10 17 1013.1 - 0.0 - - - - - - -
27/05:00pm 28.7 E 12 18 1013.0 - 0.0 - - - - - - -
27/04:30pm 29.1 E 12 18 1012.8 - 0.0 - - - - - - -
27/04:00pm 28.8 E 13 21 1013.1 - 0.0 - - - - - - -
27/03:30pm 29.4 E 14 22 1013.2 - 0.0 - - - - - - -
27/03:00pm 29.5 E 14 20 1013.4 - 0.0 - - - - - - -
27/02:30pm 29.9 E 13 20 1013.6 - 0.0 - - - - - - -
27/02:00pm 29.1 E 14 20 1014.1 - 0.0 - - - - - - -
27/01:30pm 29.3 E 13 20 1014.5 - 0.0 - - - - - - -
27/01:00pm 29.2 ESE 16 23 1015.1 - 0.0 - - - - - - -
27/12:30pm 29.0 E 14 21 1015.4 - 0.0 - - - - - - -
27/12:00pm 28.7 ESE 13 20 1015.9 - 0.0 - - - - - - -
27/11:30am 27.9 ESE 14 19 1016.3 - 0.0 - - - - - - -
27/11:00am 27.9 ESE 13 20 1016.8 - 0.0 - - - - - - -
27/10:30am 27.6 E 14 20 1017.0 - 0.0 - - - - - - -
27/10:00am 27.0 ESE 13 19 1017.3 - 0.0 - - - - - - -
27/09:30am 26.6 E 12 18 1017.1 - 0.0 - - - - - - -
27/09:00am 25.9 E 11 17 1017.0 - 0.0 - - - - - - -
27/08:30am 25.4 E 8 13 1016.8 - 0.0 - - - - - - -
27/08:00am 23.9 ESE 4 6 1016.7 - 0.0 - - - - - - -
27/07:30am 21.9 E 3 6 1016.4 - 0.0 - - - - - - -
27/07:00am 21.7 ESE 5 7 1016.1 - 0.0 - - - - - - -
27/06:30am 21.8 ESE 5 8 1015.8 - 0.0 - - - - - - -
27/06:00am 21.5 ESE 4 6 1015.7 - 0.0 - - - - - - -
27/05:30am 21.7 ESE 4 6 1015.6 - 0.0 - - - - - - -
27/05:00am 22.0 ESE 5 7 1015.5 - 0.0 - - - - - - -
27/04:30am 22.2 SE 5 7 1015.2 - 0.0 - - - - - - -
27/04:00am 22.4 ESE 4 6 1015.4 - 0.0 - - - - - - -
27/03:30am 22.8 ESE 4 5 1015.3 - 0.0 - - - - - - -
27/03:00am 23.0 E 4 6 1015.5 - 0.0 - - - - - - -
27/02:30am 23.4 ESE 5 7 1015.7 - 0.0 - - - - - - -
27/02:00am 23.9 E 6 9 1016.0 - 0.0 - - - - - - -
27/01:30am 23.9 ESE 6 8 1016.2 - 0.0 - - - - - - -
27/01:00am 24.1 E 7 10 1016.4 - 0.0 - - - - - - -
27/12:30am 24.4 E 9 13 1016.6 - 0.0 - - - - - - -
27/12:00am 24.4 E 8 12 1016.8 - 0.0 - - - - - - -
 
Date/Time
CST
Temp

°C
Wind Pressure Rain
since 9am
mm
Weather Cloud Vis
km
Sea
Height
m
Swell
Dir
 
Speed
knots
Gust
knots
hPa Trend Height
m
Period
s
Dir
26/11:30pm 24.5 E 9 14 1016.7 - 0.0 - - - - - - -
26/11:00pm 24.4 E 9 14 1016.9 - 0.0 - - - - - - -
26/10:30pm 24.4 E 9 14 1016.9 - 0.0 - - - - - - -
26/10:00pm 24.1 E 7 10 1016.9 - 0.0 - - - - - - -
26/09:30pm 23.8 ENE 7 10 1016.7 - 0.0 - - - - - - -
26/09:00pm 23.4 ENE 6 8 1016.4 - 0.0 - - - - - - -
26/08:30pm 23.3 ENE 5 7 1016.4 - 0.0 - - - - - - -
26/08:00pm 23.5 ENE 5 7 1016.1 - 0.0 - - - - - - -
26/07:30pm 23.8 ENE 6 9 1015.8 - 0.0 - - - - - - -
26/07:00pm 24.1 ENE 7 10 1015.7 - 0.0 - - - - - - -
26/06:30pm 24.7 ENE 9 14 1015.2 - 0.0 - - - - - - -

Other Formats:

Comma delimited format used in spreadsheet applications
http://www.bom.gov.au/fwo/IDD60701/IDD60701.94108.axf

JavaScript Object Notation format (JSON) in row-major order
http://www.bom.gov.au/fwo/IDD60701/IDD60701.94108.json